Hangu, China
Current Conditions -  °F | °C
As of 4:00 PM on Monday 24 Nov 2014 (Local Time) from ZBTJ Reporting Station
Clear Clear  
Wind Chill: 45°   Ceiling: Unl
Heat Index: 48°   Visibility: 6mi
Dew Point: 25°   Wind: 7mph
Humidity: 40%   Direction: 140°SE
Pressure: 30.3"   Gusts: NA
Location:  39.23°N, 117.78°E
Report Text: ZBTJ 240800Z 14003MPS CAVOK 09/M04 Q1026 NOSIG
Loading
Personal Weather Stations






























Interactive Weather Map New forecast layout! Learn more

10-Day Weather Forecast

Advertisements
Track Severe Weather on mobile